Time;durP1;ratioP1;P1;durP2;ratioP2;P2;SDS_P1;SDS_P2;PMS_P1;PMS_P2;Temp;Humidity;BMP_temperature;BMP_pressure;BME280_temperature;BME280_humidity;BME280_pressure;Samples;Min_cycle;Max_cycle;Signal;HPM_P1;HPM_P2
2022/05/23 00:01:07;;;;;;;4.15;2.28;;;13.90;99.90;;;;;;4921642;29;20083;-82
2022/05/23 00:03:35;;;;;;;3.55;2.40;;;13.90;99.90;;;;;;4921510;29;20056;-83
2022/05/23 00:06:01;;;;;;;6.47;2.60;;;13.90;99.90;;;;;;4921387;29;20079;-82
2022/05/23 00:08:28;;;;;;;6.95;3.20;;;13.90;99.90;;;;;;4921089;29;20063;-83
2022/05/23 00:10:54;;;;;;;5.18;2.20;;;13.90;99.90;;;;;;4906742;29;20044;-83
2022/05/23 00:13:20;;;;;;;5.10;2.50;;;13.90;99.90;;;;;;4920971;29;20059;-83
2022/05/23 00:15:45;;;;;;;4.70;2.15;;;13.90;99.90;;;;;;4889437;29;20039;-83
2022/05/23 00:18:11;;;;;;;3.92;2.20;;;13.90;99.90;;;;;;4920178;29;20059;-83
2022/05/23 00:20:37;;;;;;;4.28;2.25;;;13.90;99.90;;;;;;4921871;29;20107;-83
2022/05/23 00:23:02;;;;;;;4.03;2.28;;;13.90;99.90;;;;;;4920505;29;20135;-82
2022/05/23 00:25:28;;;;;;;5.95;2.20;;;13.90;99.90;;;;;;4920882;29;20414;-83
2022/05/23 00:27:54;;;;;;;3.35;2.20;;;13.90;99.90;;;;;;4921147;29;20045;-84
2022/05/23 00:30:23;;;;;;;4.57;2.33;;;13.90;99.90;;;;;;4904761;29;20104;-83
2022/05/23 00:35:36;;;;;;;4.97;2.65;;;13.90;99.90;;;;;;4904944;29;20044;-83
2022/05/23 00:38:02;;;;;;;4.68;2.33;;;13.90;99.90;;;;;;4922016;29;20084;-83
2022/05/23 00:40:30;;;;;;;3.88;2.00;;;13.80;99.90;;;;;;4906433;29;20088;-82
2022/05/23 00:43:15;;;;;;;3.88;2.45;;;13.90;99.90;;;;;;4904805;29;20056;-83
2022/05/23 00:45:46;;;;;;;3.45;2.20;;;13.90;99.90;;;;;;4889580;29;20040;-83
2022/05/23 00:48:13;;;;;;;4.70;2.20;;;13.90;99.90;;;;;;4920846;29;20052;-83
2022/05/23 00:50:42;;;;;;;6.13;2.35;;;13.90;99.90;;;;;;4905270;29;20237;-83
2022/05/23 00:53:10;;;;;;;4.32;2.45;;;13.90;99.90;;;;;;4922082;29;20059;-83
2022/05/23 00:55:48;;;;;;;4.63;2.30;;;13.90;99.90;;;;;;4904854;29;20505;-83
2022/05/23 00:58:35;;;;;;;4.45;2.20;;;13.90;99.90;;;;;;4905351;29;20079;-83
2022/05/23 01:01:05;;;;;;;4.10;2.20;;;13.90;99.90;;;;;;4921028;29;20112;-83
2022/05/23 01:03:32;;;;;;;4.05;2.28;;;13.90;99.90;;;;;;4904937;29;20514;-83
2022/05/23 01:05:58;;;;;;;4.25;2.50;;;13.90;99.90;;;;;;4920342;29;20049;-82
2022/05/23 01:08:24;;;;;;;3.45;2.17;;;13.90;99.90;;;;;;4905472;29;20513;-83
2022/05/23 01:10:51;;;;;;;4.65;2.50;;;13.90;99.90;;;;;;4921005;29;20549;-83
2022/05/23 01:13:17;;;;;;;3.85;2.08;;;13.90;99.90;;;;;;4921587;29;20716;-83
2022/05/23 01:15:46;;;;;;;7.28;2.40;;;13.90;99.90;;;;;;4911242;29;20047;-83
2022/05/23 01:18:12;;;;;;;4.68;2.05;;;14.00;99.90;;;;;;4903110;29;20071;-83
2022/05/23 01:20:38;;;;;;;5.05;2.05;;;14.00;99.90;;;;;;4919913;29;20508;-84
2022/05/23 01:23:07;;;;;;;3.63;2.17;;;13.90;99.90;;;;;;4904889;29;20152;-84
2022/05/23 01:25:40;;;;;;;5.03;1.80;;;13.90;99.90;;;;;;4919321;29;20510;-83
2022/05/23 01:28:06;;;;;;;5.35;2.15;;;14.00;99.90;;;;;;4921337;29;20131;-84
2022/05/23 01:30:36;;;;;;;4.82;2.00;;;14.00;99.90;;;;;;4888187;29;20134;-84
2022/05/23 01:33:03;;;;;;;4.78;2.33;;;14.00;99.90;;;;;;4919971;29;20668;-83
2022/05/23 01:35:29;;;;;;;5.95;2.35;;;14.00;99.90;;;;;;4919508;29;20045;-83
2022/05/23 01:37:55;;;;;;;2.92;1.92;;;14.00;99.90;;;;;;4920102;29;20104;-84
2022/05/23 01:40:21;;;;;;;3.35;2.05;;;14.00;99.90;;;;;;4904029;29;20048;-82
2022/05/23 01:42:47;;;;;;;3.53;2.40;;;14.00;99.90;;;;;;4903580;29;20095;-83
2022/05/23 01:45:16;;;;;;;6.65;2.20;;;14.00;99.90;;;;;;4904962;29;20048;-84
2022/05/23 01:47:43;;;;;;;3.67;2.30;;;14.00;99.90;;;;;;4919148;29;20052;-83
2022/05/23 01:50:09;;;;;;;3.58;2.47;;;14.00;99.90;;;;;;4888791;29;20060;-84
2022/05/23 01:52:36;;;;;;;4.22;2.28;;;14.00;99.90;;;;;;4895351;29;20051;-84
2022/05/23 01:55:02;;;;;;;3.88;2.30;;;14.00;99.90;;;;;;4904350;29;20048;-83
2022/05/23 01:57:31;;;;;;;4.55;2.25;;;13.90;99.90;;;;;;4895118;29;20059;-82
2022/05/23 02:02:44;;;;;;;4.70;2.30;;;13.90;99.90;;;;;;4904935;29;20087;-83
2022/05/23 02:05:10;;;;;;;5.15;2.42;;;13.80;99.90;;;;;;4918849;29;20040;-83
2022/05/23 02:07:36;;;;;;;3.63;2.13;;;13.80;99.90;;;;;;4904142;29;20564;-84
2022/05/23 02:10:03;;;;;;;3.97;2.50;;;13.70;99.90;;;;;;4918053;29;20059;-84
2022/05/23 02:12:28;;;;;;;3.38;2.20;;;13.80;99.90;;;;;;4889464;29;20060;-83
2022/05/23 02:14:54;;;;;;;4.47;2.58;;;13.70;99.90;;;;;;4920920;29;20058;-84
2022/05/23 02:17:20;;;;;;;4.60;2.50;;;13.70;99.90;;;;;;4917994;29;20056;-84
2022/05/23 02:19:47;;;;;;;6.43;2.67;;;13.70;99.90;;;;;;4919158;29;20119;-83
2022/05/23 02:22:12;;;;;;;4.20;2.58;;;13.70;99.90;;;;;;4919205;29;20059;-84
2022/05/23 02:24:38;;;;;;;4.75;2.10;;;13.70;99.90;;;;;;4902114;29;20060;-83
2022/05/23 02:27:04;;;;;;;4.75;2.40;;;13.60;99.90;;;;;;4917140;29;20055;-84
2022/05/23 02:29:30;;;;;;;3.55;2.20;;;13.60;99.90;;;;;;4903916;29;20057;-83
2022/05/23 02:31:56;;;;;;;4.05;2.55;;;13.60;99.90;;;;;;4918677;29;20060;-83
2022/05/23 02:34:21;;;;;;;3.58;2.40;;;13.60;99.90;;;;;;4903674;29;20055;-84
2022/05/23 02:36:48;;;;;;;4.30;2.15;;;13.50;99.90;;;;;;4918066;29;20071;-83
2022/05/23 02:39:15;;;;;;;6.00;2.50;;;13.50;99.90;;;;;;4903389;29;20513;-83
2022/05/23 02:41:41;;;;;;;3.75;2.20;;;13.40;99.90;;;;;;4903617;29;20068;-84
2022/05/23 02:44:07;;;;;;;4.35;2.40;;;13.40;99.90;;;;;;4909952;29;20100;-83
2022/05/23 02:46:33;;;;;;;6.30;2.60;;;13.40;99.90;;;;;;4919016;29;20084;-83
2022/05/23 02:48:59;;;;;;;4.18;2.45;;;13.30;99.90;;;;;;4903474;29;20071;-83
2022/05/23 02:51:25;;;;;;;3.95;2.70;;;13.30;99.90;;;;;;4903509;29;20057;-83
2022/05/23 02:53:51;;;;;;;6.60;2.60;;;13.20;99.90;;;;;;4918869;29;20475;-84
2022/05/23 02:56:17;;;;;;;3.78;2.60;;;13.20;99.90;;;;;;4918137;29;20053;-83
2022/05/23 02:58:43;;;;;;;5.03;2.65;;;13.10;99.90;;;;;;4910688;29;20055;-83
2022/05/23 03:01:09;;;;;;;3.78;2.60;;;13.10;99.90;;;;;;4918255;29;20056;-83
2022/05/23 03:03:36;;;;;;;4.47;2.88;;;13.10;99.90;;;;;;4887358;29;20055;-83
2022/05/23 03:06:03;;;;;;;5.13;2.92;;;13.00;99.90;;;;;;4917480;29;20517;-84
2022/05/23 03:08:29;;;;;;;5.88;2.70;;;13.00;99.90;;;;;;4887168;29;20164;-83
2022/05/23 03:10:58;;;;;;;4.70;2.75;;;13.00;99.90;;;;;;4887881;29;20061;-83
2022/05/23 03:13:24;;;;;;;3.95;2.50;;;12.90;99.90;;;;;;4918941;29;20063;-83
2022/05/23 03:15:50;;;;;;;4.38;2.60;;;12.90;99.90;;;;;;4901926;29;20048;-83
2022/05/23 03:18:16;;;;;;;5.88;2.47;;;12.80;99.90;;;;;;4903035;29;20048;-83
2022/05/23 03:20:42;;;;;;;5.63;2.63;;;12.80;99.90;;;;;;4901747;29;20075;-83
2022/05/23 03:28:39;;;;;;;4.85;2.55;;;12.80;99.90;;;;;;4918423;29;20064;-84
2022/05/23 03:31:06;;;;;;;3.55;2.78;;;12.70;99.90;;;;;;4918866;29;20053;-84
2022/05/23 03:33:32;;;;;;;4.25;2.58;;;12.70;99.90;;;;;;4918628;29;20044;-83
2022/05/23 03:35:58;;;;;;;5.68;2.63;;;12.70;99.90;;;;;;4917717;29;20160;-82
2022/05/23 03:38:24;;;;;;;4.05;2.83;;;12.70;99.90;;;;;;4917962;29;20090;-83
2022/05/23 03:40:50;;;;;;;5.22;2.88;;;12.70;99.90;;;;;;4918024;29;20048;-83
2022/05/23 03:43:15;;;;;;;3.97;2.67;;;12.70;99.90;;;;;;4919940;29;20055;-83
2022/05/23 03:45:42;;;;;;;4.97;2.65;;;12.70;99.90;;;;;;4901811;29;20049;-83
2022/05/23 03:48:09;;;;;;;5.50;2.63;;;12.70;99.90;;;;;;4917683;29;20060;-84
2022/05/23 03:50:35;;;;;;;3.97;2.85;;;12.70;99.90;;;;;;4918327;29;20135;-83
2022/05/23 03:53:02;;;;;;;4.28;2.53;;;12.70;99.90;;;;;;4891168;29;20073;-83
2022/05/23 03:55:29;;;;;;;4.30;2.50;;;12.60;99.90;;;;;;4910384;29;20051;-83
2022/05/23 03:57:55;;;;;;;5.65;2.60;;;12.60;99.90;;;;;;4909669;29;20103;-83
2022/05/23 04:00:21;;;;;;;5.05;2.90;;;12.60;99.90;;;;;;4925561;29;20451;-84
2022/05/23 04:02:47;;;;;;;3.50;2.40;;;12.60;99.90;;;;;;4903067;29;20099;-84
2022/05/23 04:05:16;;;;;;;4.97;2.83;;;12.60;99.90;;;;;;4902800;29;20055;-83
2022/05/23 04:07:42;;;;;;;6.57;2.72;;;12.60;99.90;;;;;;4908148;29;20456;-84
2022/05/23 04:10:16;;;;;;;4.55;2.72;;;12.60;99.90;;;;;;4917842;29;20059;-83
2022/05/23 04:12:42;;;;;;;4.60;2.40;;;12.60;99.90;;;;;;4902490;29;20052;-83
2022/05/23 04:15:08;;;;;;;4.18;2.30;;;12.60;99.90;;;;;;4917694;29;20108;-83
2022/05/23 04:17:35;;;;;;;3.47;2.40;;;12.60;99.90;;;;;;4918283;29;20056;-84
2022/05/23 04:20:01;;;;;;;3.65;2.28;;;12.60;99.90;;;;;;4901745;29;20048;-84
2022/05/23 04:22:26;;;;;;;3.63;2.70;;;12.70;99.90;;;;;;4901615;29;20111;-84
2022/05/23 04:24:52;;;;;;;5.53;3.05;;;12.60;99.90;;;;;;4918982;29;20080;-84
2022/05/23 04:27:18;;;;;;;4.82;2.50;;;12.60;99.90;;;;;;4921336;29;20060;-83
2022/05/23 04:29:44;;;;;;;6.38;2.80;;;12.60;99.90;;;;;;4905720;29;20052;-84
2022/05/23 04:35:13;;;;;;;3.28;2.38;;;12.60;99.90;;;;;;4906950;29;20068;-84
2022/05/23 04:37:40;;;;;;;5.57;2.50;;;12.70;99.90;;;;;;4889333;29;20075;-84
2022/05/23 04:40:07;;;;;;;3.53;2.67;;;12.70;99.90;;;;;;4920091;29;20063;-84
2022/05/23 04:42:33;;;;;;;3.28;2.47;;;12.70;99.90;;;;;;4890039;29;20060;-83
2022/05/23 04:44:59;;;;;;;4.82;2.38;;;12.70;99.90;;;;;;4904416;29;20067;-83
2022/05/23 04:50:09;;;;;;;3.35;2.20;;;12.80;99.90;;;;;;4905480;29;20075;-84
2022/05/23 04:52:35;;;;;;;5.13;2.60;;;12.90;99.90;;;;;;4906290;29;20395;-83
2022/05/23 04:55:00;;;;;;;5.25;2.53;;;12.90;99.90;;;;;;4919279;29;20053;-84
2022/05/23 04:57:26;;;;;;;5.13;2.40;;;12.90;99.90;;;;;;4888938;29;20063;-84
2022/05/23 04:59:52;;;;;;;3.30;2.20;;;13.00;99.90;;;;;;4889328;29;20413;-84
2022/05/23 05:02:17;;;;;;;3.35;2.35;;;13.00;99.90;;;;;;4873333;29;20384;-83
2022/05/23 05:04:43;;;;;;;3.75;2.25;;;13.00;99.90;;;;;;4919137;29;20048;-83
2022/05/23 05:07:09;;;;;;;4.93;2.40;;;13.10;99.90;;;;;;4903795;29;20048;-84
2022/05/23 05:09:35;;;;;;;3.60;2.20;;;13.10;99.90;;;;;;4895572;29;20056;-83
2022/05/23 05:12:01;;;;;;;5.22;2.30;;;13.20;99.90;;;;;;4920262;29;20056;-84
2022/05/23 05:14:27;;;;;;;3.72;2.40;;;13.20;99.90;;;;;;4904416;29;20056;-84
2022/05/23 05:16:53;;;;;;;4.88;2.45;;;13.30;99.90;;;;;;4920126;29;20067;-84
2022/05/23 05:19:19;;;;;;;4.57;2.47;;;13.30;99.90;;;;;;4889119;29;20055;-84
2022/05/23 05:21:45;;;;;;;4.82;2.85;;;13.30;99.90;;;;;;4904571;29;20061;-84
2022/05/23 05:24:12;;;;;;;7.75;2.63;;;13.40;99.90;;;;;;4905021;29;20397;-83
2022/05/23 05:26:38;;;;;;;4.90;2.70;;;13.40;99.90;;;;;;4911821;29;20059;-83
2022/05/23 05:29:04;;;;;;;3.38;2.78;;;13.50;99.90;;;;;;4920180;29;20056;-83
2022/05/23 05:31:45;;;;;;;5.82;2.65;;;13.60;99.90;;;;;;4920023;29;20055;-83
2022/05/23 05:34:17;;;;;;;6.38;2.88;;;13.60;99.90;;;;;;4919052;29;20089;-83
2022/05/23 05:37:02;;;;;;;4.38;2.50;;;13.70;99.90;;;;;;4918445;29;20044;-83
2022/05/23 05:39:31;;;;;;;5.15;2.20;;;13.70;99.90;;;;;;4910326;29;20045;-83
2022/05/23 05:42:07;;;;;;;6.15;2.58;;;13.80;99.90;;;;;;4903944;29;20755;-83
2022/05/23 05:44:35;;;;;;;5.30;2.42;;;13.80;99.90;;;;;;4918872;29;20049;-81
2022/05/23 05:47:08;;;;;;;5.35;2.78;;;13.90;99.90;;;;;;4886898;29;20142;-83
2022/05/23 05:49:37;;;;;;;3.90;2.67;;;14.00;99.90;;;;;;4887976;29;20056;-84
2022/05/23 05:52:05;;;;;;;4.38;2.63;;;13.60;99.90;;;;;;4919367;29;20095;-83
2022/05/23 05:54:32;;;;;;;3.88;2.28;;;14.20;99.90;;;;;;4919450;29;20128;-83
2022/05/23 05:57:00;;;;;;;5.38;2.80;;;14.30;99.90;;;;;;4902886;29;20062;-83
2022/05/23 05:59:27;;;;;;;4.97;2.70;;;14.30;99.90;;;;;;4903177;29;20644;-82
2022/05/23 06:01:52;;;;;;;4.18;2.35;;;14.40;99.90;;;;;;4918415;29;20048;-83
2022/05/23 06:04:18;;;;;;;3.00;2.40;;;14.50;99.90;;;;;;4919055;29;20056;-84
2022/05/23 06:12:12;;;;;;;3.92;2.45;;;14.80;99.90;;;;;;4906181;29;20056;-84
2022/05/23 06:14:38;;;;;;;4.43;2.20;;;15.00;99.90;;;;;;4919070;29;20056;-84
2022/05/23 06:17:10;;;;;;;3.92;2.33;;;15.10;99.90;;;;;;4920044;29;20059;-83
2022/05/23 06:19:45;;;;;;;4.70;2.38;;;15.30;99.90;;;;;;4903135;29;20262;-84
2022/05/23 06:22:12;;;;;;;4.88;2.42;;;15.40;99.90;;;;;;4902150;29;20450;-84
2022/05/23 06:24:38;;;;;;;4.90;2.40;;;15.50;99.90;;;;;;4902639;29;20533;-84
2022/05/23 06:27:06;;;;;;;5.60;2.65;;;15.50;99.90;;;;;;4917887;29;20091;-83
2022/05/23 06:29:42;;;;;;;2.88;2.00;;;15.70;99.90;;;;;;4903037;29;20055;-85
2022/05/23 06:32:08;;;;;;;4.78;2.35;;;15.70;99.90;;;;;;4919414;29;20083;-82
2022/05/23 06:34:34;;;;;;;5.18;2.65;;;15.40;99.90;;;;;;4895012;29;20102;-81
2022/05/23 06:37:00;;;;;;;5.38;2.72;;;16.00;99.90;;;;;;4918105;29;20056;-83
2022/05/23 06:39:25;;;;;;;4.93;2.50;;;16.20;99.90;;;;;;4919941;29;20063;-83
2022/05/23 06:41:52;;;;;;;4.22;2.30;;;16.40;99.90;;;;;;4903282;29;20482;-87
2022/05/23 06:44:17;;;;;;;5.88;2.45;;;16.50;99.90;;;;;;4902150;29;20403;-85
2022/05/23 06:46:43;;;;;;;6.40;3.00;;;16.60;99.90;;;;;;4886413;29;20127;-84
2022/05/23 06:49:09;;;;;;;4.55;2.50;;;16.70;99.90;;;;;;4918370;29;20062;-85
2022/05/23 06:51:36;;;;;;;4.57;2.65;;;16.80;99.90;;;;;;4903185;29;20173;-85
2022/05/23 06:54:02;;;;;;;4.68;2.88;;;16.80;99.90;;;;;;4903193;29;20413;-84
2022/05/23 06:56:28;;;;;;;5.57;2.80;;;16.90;99.90;;;;;;4918735;29;20075;-84
2022/05/23 06:58:55;;;;;;;4.13;2.50;;;16.90;99.90;;;;;;4917679;29;20083;-85
2022/05/23 07:01:21;;;;;;;5.80;2.50;;;16.90;99.90;;;;;;4917386;29;20055;-85
2022/05/23 07:03:47;;;;;;;5.28;2.95;;;16.90;99.90;;;;;;4901955;29;20071;-84
2022/05/23 07:14:26;;;;;;;4.93;3.05;;;17.20;99.90;;;;;;4902779;29;20052;-84
2022/05/23 07:16:53;;;;;;;4.60;2.60;;;17.20;99.90;;;;;;4917970;29;20055;-84
2022/05/23 07:19:19;;;;;;;5.03;3.20;;;17.30;99.90;;;;;;4902160;29;20052;-85
2022/05/23 07:21:45;;;;;;;4.57;2.95;;;17.30;99.90;;;;;;4902302;29;20060;-84
2022/05/23 07:24:11;;;;;;;4.20;2.90;;;17.40;99.90;;;;;;4919042;29;20044;-84
2022/05/23 07:26:37;;;;;;;4.25;2.78;;;17.40;99.90;;;;;;4886339;29;20826;-85
2022/05/23 07:29:04;;;;;;;4.65;3.00;;;17.50;99.90;;;;;;4903154;29;20091;-83
2022/05/23 07:31:30;;;;;;;6.05;3.17;;;17.60;99.90;;;;;;4901754;29;20053;-82
2022/05/23 07:33:55;;;;;;;6.82;3.33;;;17.70;99.90;;;;;;4901743;29;20372;-83
2022/05/23 07:36:22;;;;;;;5.93;2.80;;;17.80;99.90;;;;;;4902094;29;20760;-83
2022/05/23 07:38:47;;;;;;;5.60;2.97;;;17.90;99.90;;;;;;4917190;29;20140;-84
2022/05/23 07:41:13;;;;;;;6.95;3.30;;;17.90;99.90;;;;;;4889110;29;20148;-83
2022/05/23 07:43:41;;;;;;;6.55;2.78;;;18.00;99.90;;;;;;4887397;29;20119;-83
2022/05/23 07:46:12;;;;;;;5.25;3.10;;;18.10;99.90;;;;;;4919335;29;20123;-82
2022/05/23 07:48:40;;;;;;;4.72;2.88;;;18.30;99.90;;;;;;4904082;29;20188;-85
2022/05/23 07:51:08;;;;;;;5.07;2.70;;;18.50;99.90;;;;;;4901625;29;20577;-86
2022/05/23 08:01:48;;;;;;;5.60;2.78;;;19.50;99.90;;;;;;4908936;29;20567;-85
2022/05/23 08:04:14;;;;;;;5.40;3.30;;;19.60;99.90;;;;;;4907441;29;20099;-85
2022/05/23 08:06:40;;;;;;;5.38;3.15;;;19.80;99.90;;;;;;4921748;29;20557;-85
2022/05/23 08:09:07;;;;;;;5.80;2.90;;;20.00;99.90;;;;;;4921772;29;20856;-85
2022/05/23 08:11:33;;;;;;;6.25;3.00;;;20.20;99.90;;;;;;4922606;29;20155;-85
2022/05/23 08:13:59;;;;;;;4.95;2.88;;;20.40;99.90;;;;;;4906439;29;20056;-86
2022/05/23 08:16:25;;;;;;;6.07;2.90;;;20.70;99.90;;;;;;4925601;29;20496;-86
2022/05/23 08:18:51;;;;;;;4.38;2.92;;;20.70;99.90;;;;;;4906614;29;20040;-86
2022/05/23 08:21:16;;;;;;;6.07;3.13;;;20.90;99.90;;;;;;4923198;29;20056;-84
2022/05/23 08:23:43;;;;;;;6.20;3.65;;;20.90;99.90;;;;;;4908172;29;20131;-84
2022/05/23 08:26:13;;;;;;;8.05;3.20;;;20.90;99.90;;;;;;4912838;29;20114;-83
2022/05/23 08:28:39;;;;;;;4.40;3.00;;;21.10;99.90;;;;;;4923780;29;20079;-84
2022/05/23 08:31:07;;;;;;;5.47;3.33;;;21.10;99.90;;;;;;4906305;29;20394;-84
2022/05/23 08:33:33;;;;;;;5.40;3.15;;;21.10;99.90;;;;;;4895977;29;20055;-85
2022/05/23 08:35:59;;;;;;;5.93;3.30;;;21.20;99.90;;;;;;4903985;29;20047;-85
2022/05/23 08:38:25;;;;;;;4.80;3.67;;;21.30;99.90;;;;;;4906656;29;20091;-85
2022/05/23 08:40:54;;;;;;;6.93;3.70;;;21.40;99.90;;;;;;4907350;29;20463;-86
2022/05/23 08:43:29;;;;;;;5.90;3.45;;;21.50;99.90;;;;;;4922692;29;20052;-84
2022/05/23 08:45:57;;;;;;;5.43;3.25;;;21.60;99.90;;;;;;4903689;29;20055;-84
2022/05/23 08:48:43;;;;;;;5.35;3.22;;;21.90;99.90;;;;;;4905529;29;20101;-85
2022/05/23 08:51:26;;;;;;;8.37;4.10;;;22.20;99.90;;;;;;4905892;29;20553;-85
2022/05/23 08:54:20;;;;;;;5.38;3.50;;;22.60;99.90;;;;;;4906237;29;20958;-85
2022/05/23 08:56:53;;;;;;;3.97;2.90;;;22.80;99.90;;;;;;4908916;29;20063;-85
2022/05/23 08:59:40;;;;;;;7.68;3.30;;;23.10;99.90;;;;;;4904892;29;20060;-84
2022/05/23 09:02:16;;;;;;;5.43;3.30;;;23.30;99.90;;;;;;4924132;29;20155;-86
2022/05/23 09:05:17;;;;;;;6.90;3.70;;;23.50;99.90;;;;;;4906973;29;20044;-82
2022/05/23 09:07:47;;;;;;;3.95;3.10;;;23.60;99.90;;;;;;4906089;29;20048;-84
2022/05/23 09:10:39;;;;;;;6.72;3.47;;;23.70;99.90;;;;;;4922726;29;20497;-84
2022/05/23 09:13:07;;;;;;;6.15;3.50;;;23.90;99.90;;;;;;4905773;29;20094;-84
2022/05/23 09:15:34;;;;;;;6.60;3.67;;;23.80;99.90;;;;;;4907343;29;20075;-84
2022/05/23 09:18:06;;;;;;;4.55;3.50;;;23.70;99.90;;;;;;4911395;29;20052;-84
2022/05/23 09:20:39;;;;;;;6.53;3.33;;;23.60;99.90;;;;;;4912190;29;20044;-84
2022/05/23 09:23:24;;;;;;;5.20;3.42;;;23.70;99.90;;;;;;4915100;29;20087;-85
2022/05/23 09:25:52;;;;;;;5.00;3.50;;;23.80;99.90;;;;;;4908272;29;20467;-84
2022/05/23 09:28:38;;;;;;;4.43;3.03;;;23.60;99.90;;;;;;4922443;29;20772;-83
2022/05/23 09:31:40;;;;;;;5.97;3.63;;;24.40;99.90;;;;;;4905955;29;20053;-83
2022/05/23 09:34:06;;;;;;;6.03;3.65;;;24.50;99.90;;;;;;4893764;29;20127;-82
2022/05/23 09:36:34;;;;;;;5.72;4.25;;;24.40;99.90;;;;;;4889085;29;20489;-82
2022/05/23 09:39:07;;;;;;;5.43;3.35;;;24.50;99.90;;;;;;4912564;29;20052;-82
2022/05/23 09:49:57;;;;;;;4.47;3.25;;;25.10;99.90;;;;;;4910273;29;20072;-82
2022/05/23 09:52:39;;;;;;;5.97;3.63;;;24.90;99.90;;;;;;4913670;29;20055;-83
2022/05/23 09:55:07;;;;;;;7.22;3.67;;;24.80;99.90;;;;;;4895008;29;20450;-79
2022/05/23 09:57:52;;;;;;;5.60;3.50;;;24.70;99.90;;;;;;4904812;29;20391;-77
2022/05/23 10:00:17;;;;;;;6.43;3.87;;;24.70;99.90;;;;;;4908000;29;20155;-83
2022/05/23 10:02:59;;;;;;;4.90;3.70;;;24.60;99.90;;;;;;4918980;29;20123;-83
2022/05/23 10:05:30;;;;;;;6.05;3.45;;;24.50;99.90;;;;;;4919526;29;20066;-82
2022/05/23 10:08:01;;;;;;;6.22;3.80;;;24.40;99.90;;;;;;4919813;29;20060;-83
2022/05/23 10:10:35;;;;;;;4.95;3.60;;;24.30;99.90;;;;;;4902990;29;20048;-82
2022/05/23 10:13:31;;;;;;;5.85;3.90;;;24.30;99.90;;;;;;4888440;29;20410;-82
2022/05/23 10:16:23;;;;;;;4.70;3.55;;;24.30;99.90;;;;;;4921086;29;20075;-82
2022/05/23 10:18:54;;;;;;;6.35;4.35;;;24.40;99.90;;;;;;4919546;29;20391;-82
2022/05/23 10:21:26;;;;;;;6.13;3.92;;;24.50;99.90;;;;;;4903060;29;20506;-82
2022/05/23 10:24:16;;;;;;;5.55;4.22;;;24.60;99.90;;;;;;4905866;29;20051;-81
2022/05/23 10:26:53;;;;;;;6.38;3.67;;;24.50;99.90;;;;;;4906312;29;20052;-82
2022/05/23 10:29:43;;;;;;;5.55;3.55;;;24.60;99.90;;;;;;4903026;29;20546;-80
2022/05/23 10:32:14;;;;;;;4.75;3.40;;;24.80;99.90;;;;;;4909669;29;20043;-81
2022/05/23 10:34:43;;;;;;;5.43;3.90;;;24.90;99.90;;;;;;4919894;29;20044;-81
2022/05/23 10:37:17;;;;;;;6.18;4.20;;;24.90;99.90;;;;;;4918370;29;20055;-80
2022/05/23 10:43:06;;;;;;;6.15;4.22;;;24.90;99.90;;;;;;4919113;29;20053;-81
2022/05/23 10:45:39;;;;;;;6.38;3.88;;;24.90;99.90;;;;;;4905206;29;20140;-83
2022/05/23 10:48:24;;;;;;;4.75;4.03;;;25.00;99.90;;;;;;4910037;29;20052;-82
2022/05/23 10:51:07;;;;;;;6.57;4.07;;;24.90;99.90;;;;;;4904563;29;20135;-84
2022/05/23 10:53:52;;;;;;;7.25;4.28;;;24.90;99.90;;;;;;4903572;29;20054;-83
2022/05/23 10:56:47;;;;;;;5.10;3.90;;;24.60;99.90;;;;;;4902300;29;20572;-83
2022/05/23 10:59:23;;;;;;;8.13;4.45;;;24.60;99.90;;;;;;4919322;29;20620;-83
2022/05/23 11:02:03;;;;;;;6.63;4.80;;;24.60;99.90;;;;;;4917613;29;20048;-84
2022/05/23 11:04:55;;;;;;;6.60;4.30;;;24.90;99.90;;;;;;4903432;29;20054;-84
2022/05/23 11:07:50;;;;;;;8.00;5.55;;;25.00;99.90;;;;;;4918629;29;20104;-84
2022/05/23 11:10:34;;;;;;;8.45;6.30;;;24.90;99.90;;;;;;4902331;29;20099;-83
2022/05/23 11:13:24;;;;;;;12.68;5.97;;;24.70;99.90;;;;;;4909876;29;20166;-83
2022/05/23 11:16:12;;;;;;;8.32;5.60;;;24.60;99.90;;;;;;4903226;29;20088;-84
2022/05/23 11:18:45;;;;;;;8.20;5.10;;;24.80;99.90;;;;;;4917939;29;20084;-83
2022/05/23 11:21:21;;;;;;;9.75;6.45;;;25.00;99.90;;;;;;4902385;29;20075;-83
2022/05/23 11:24:03;;;;;;;7.38;6.35;;;25.00;99.90;;;;;;4886130;29;20538;-83
2022/05/23 11:26:34;;;;;;;7.32;6.10;;;24.90;99.90;;;;;;4903137;29;20446;-83
2022/05/23 11:34:51;;;;;;;10.52;6.82;;;24.00;99.90;;;;;;4906957;29;20051;-83
2022/05/23 11:39:56;;;;;;;19.55;6.93;;;23.60;99.90;;;;;;4907990;29;20060;-83
2022/05/23 11:42:27;;;;;;;8.55;6.65;;;23.60;99.90;;;;;;4921363;29;20051;-83
2022/05/23 11:47:59;;;;;;;9.45;6.88;;;23.70;99.90;;;;;;4906638;29;20083;-83
2022/05/23 11:50:30;;;;;;;16.85;7.40;;;24.10;99.90;;;;;;4913350;29;20048;-83
2022/05/23 11:53:11;;;;;;;9.55;6.85;;;24.80;99.90;;;;;;4906270;29;20055;-83
2022/05/23 11:55:55;;;;;;;15.52;7.22;;;25.20;99.90;;;;;;4906285;29;20131;-83
2022/05/23 11:58:48;;;;;;;25.08;7.65;;;25.50;99.90;;;;;;4908707;29;20092;-83
2022/05/23 12:01:14;;;;;;;11.60;7.47;;;25.70;99.90;;;;;;4889908;29;20059;-84
2022/05/23 12:03:56;;;;;;;10.88;7.53;;;25.50;99.90;;;;;;4905605;29;20056;-84
2022/05/23 12:06:24;;;;;;;10.10;7.82;;;25.20;99.90;;;;;;4920674;29;20044;-83
2022/05/23 12:09:11;;;;;;;12.38;8.48;;;24.90;99.90;;;;;;4891173;29;20094;-83
2022/05/23 12:11:40;;;;;;;10.35;6.95;;;24.60;99.90;;;;;;4922102;29;20074;-82
2022/05/23 12:14:17;;;;;;;10.95;7.07;;;24.50;99.90;;;;;;4906461;29;20050;-83
2022/05/23 12:16:44;;;;;;;10.63;7.30;;;24.30;99.90;;;;;;4911698;29;20044;-84
2022/05/23 12:19:32;;;;;;;15.90;7.13;;;24.20;99.90;;;;;;4920513;29;20403;-83
2022/05/23 12:22:21;;;;;;;8.05;7.18;;;24.10;99.90;;;;;;4920464;29;20064;-83
2022/05/23 12:25:08;;;;;;;8.90;7.50;;;24.00;99.90;;;;;;4908759;29;20443;-83
2022/05/23 12:27:38;;;;;;;13.63;7.38;;;23.70;99.90;;;;;;4907138;29;20051;-83
2022/05/23 12:30:26;;;;;;;9.35;8.10;;;23.50;99.90;;;;;;4920735;29;20051;-83
2022/05/23 12:33:00;;;;;;;9.40;6.97;;;23.30;99.90;;;;;;4922542;29;20519;-82
2022/05/23 12:35:36;;;;;;;10.97;8.13;;;23.20;99.90;;;;;;4905873;29;20107;-83
2022/05/23 12:38:20;;;;;;;8.77;7.70;;;23.10;99.90;;;;;;4906200;29;20451;-82
2022/05/23 12:40:53;;;;;;;9.18;8.27;;;23.00;99.90;;;;;;4920725;29;20155;-83
2022/05/23 12:44:01;;;;;;;9.07;7.70;;;22.70;99.90;;;;;;4919950;29;20044;-82
2022/05/23 12:47:01;;;;;;;9.82;8.23;;;22.50;99.90;;;;;;4904399;29;20060;-84
2022/05/23 12:50:07;;;;;;;10.15;8.63;;;22.30;99.90;;;;;;4920005;29;20074;-83
2022/05/23 12:52:44;;;;;;;9.85;8.73;;;22.10;99.90;;;;;;4921623;29;20140;-83
2022/05/23 12:55:22;;;;;;;12.13;8.70;;;21.80;99.90;;;;;;4920116;29;20079;-84
2022/05/23 12:58:07;;;;;;;9.77;8.77;;;21.70;99.90;;;;;;4896607;29;20114;-83
2022/05/23 13:00:51;;;;;;;9.65;8.65;;;21.60;99.90;;;;;;4896011;29;20058;-83
2022/05/23 13:03:17;;;;;;;10.88;9.18;;;21.50;99.90;;;;;;4919723;29;20064;-83
2022/05/23 13:05:51;;;;;;;14.38;9.45;;;21.30;99.90;;;;;;4923106;29;20063;-83
2022/05/23 13:08:29;;;;;;;15.10;10.23;;;21.30;99.90;;;;;;4904918;29;20083;-82
2022/05/23 13:11:03;;;;;;;11.02;9.45;;;21.10;99.90;;;;;;4912592;29;20457;-84
2022/05/23 13:13:40;;;;;;;14.27;10.10;;;21.00;99.90;;;;;;4914041;29;20043;-84
2022/05/23 13:16:15;;;;;;;13.10;9.75;;;20.90;99.90;;;;;;4920906;29;20058;-81
2022/05/23 13:24:48;;;;;;;11.52;10.32;;;20.60;99.90;;;;;;4910783;29;20057;-84
2022/05/23 13:27:03;;;;;;;13.18;10.80;;;20.40;99.90;;;;;;4921067;29;20150;-84
2022/05/23 13:29:30;;;;;;;12.07;10.80;;;20.30;99.90;;;;;;4903829;29;20051;-84
2022/05/23 13:32:01;;;;;;;10.20;8.68;;;20.30;99.90;;;;;;4919728;29;20518;-83
2022/05/23 13:34:39;;;;;;;12.70;10.95;;;20.30;99.90;;;;;;4904943;29;20072;-84
2022/05/23 13:37:06;;;;;;;13.40;11.18;;;20.50;99.90;;;;;;4903797;29;20043;-83
2022/05/23 13:39:41;;;;;;;15.73;11.68;;;20.40;99.90;;;;;;4889306;29;20052;-84
2022/05/23 13:42:18;;;;;;;15.88;10.85;;;20.40;99.90;;;;;;4919855;29;20075;-84
2022/05/23 13:44:44;;;;;;;14.82;11.48;;;20.40;99.90;;;;;;4888481;29;20135;-84
2022/05/23 13:47:16;;;;;;;13.32;11.57;;;20.40;99.90;;;;;;4908392;29;20147;-85
2022/05/23 13:50:00;;;;;;;16.60;11.45;;;20.40;99.90;;;;;;4904786;29;20112;-84
2022/05/23 13:52:31;;;;;;;12.90;11.60;;;20.20;99.90;;;;;;4922459;29;20199;-84
2022/05/23 13:55:30;;;;;;;11.43;10.23;;;20.20;99.90;;;;;;4919604;29;20067;-85
2022/05/23 13:58:07;;;;;;;11.57;10.38;;;20.10;99.90;;;;;;4918879;29;20068;-83
2022/05/23 14:00:37;;;;;;;12.30;10.82;;;20.10;99.90;;;;;;4918575;29;20063;-84
2022/05/23 14:03:10;;;;;;;13.25;10.63;;;20.00;99.90;;;;;;4894604;29;20107;-84
2022/05/23 14:05:44;;;;;;;12.93;10.43;;;20.00;99.90;;;;;;4903345;29;20044;-82
2022/05/23 14:08:13;;;;;;;15.65;12.40;;;20.00;99.90;;;;;;4904055;29;20062;-81
2022/05/23 14:10:44;;;;;;;13.32;11.32;;;19.90;99.90;;;;;;4886908;29;20062;-81
2022/05/23 14:13:11;;;;;;;13.35;11.68;;;19.90;99.90;;;;;;4888584;29;20496;-81